createdAt,value
2018-12-23T00:01:54.518Z,104.00
2018-12-23T00:04:22.600Z,84.73
2018-12-23T00:06:50.908Z,94.10
2018-12-23T00:09:19.077Z,129.73
2018-12-23T00:11:47.296Z,72.73
2018-12-23T00:14:15.317Z,86.97
2018-12-23T00:16:43.463Z,84.73
2018-12-23T00:19:11.456Z,86.97
2018-12-23T00:21:39.726Z,97.50
2018-12-23T00:24:07.894Z,85.03
2018-12-23T00:26:35.996Z,213.50
2018-12-23T00:29:03.947Z,136.80
2018-12-23T00:31:31.876Z,130.47
2018-12-23T00:34:00.125Z,111.60
2018-12-23T00:36:28.388Z,179.20
2018-12-23T00:38:56.408Z,192.20
2018-12-23T00:41:24.353Z,111.63
2018-12-23T00:43:52.501Z,105.33
2018-12-23T00:46:20.721Z,81.67
2018-12-23T00:48:48.783Z,83.57
2018-12-23T00:51:16.888Z,82.20
2018-12-23T00:53:45.080Z,136.47
2018-12-23T00:56:13.200Z,129.87
2018-12-23T00:58:41.372Z,112.10
2018-12-23T01:01:09.460Z,83.73
2018-12-23T01:03:37.760Z,158.13
2018-12-23T01:06:06.024Z,89.00
2018-12-23T01:08:33.968Z,78.33
2018-12-23T01:11:02.139Z,64.77
2018-12-23T01:13:30.440Z,57.17
2018-12-23T01:15:58.498Z,57.80
2018-12-23T01:18:26.468Z,69.23
2018-12-23T01:20:54.459Z,56.63
2018-12-23T01:23:22.615Z,72.40
2018-12-23T01:25:50.700Z,65.03
2018-12-23T01:28:18.900Z,55.17
2018-12-23T01:30:47.224Z,54.67
2018-12-23T01:33:15.296Z,50.27
2018-12-23T01:35:43.415Z,35.83
2018-12-23T01:38:11.466Z,28.83
2018-12-23T01:40:39.596Z,25.90
2018-12-23T01:43:07.723Z,26.17
2018-12-23T01:45:35.912Z,22.60
2018-12-23T01:48:04.157Z,29.40
2018-12-23T01:50:32.278Z,32.23
2018-12-23T01:53:00.424Z,35.80
2018-12-23T01:55:28.468Z,23.60
2018-12-23T01:57:56.592Z,21.13
2018-12-23T02:00:24.857Z,17.10
2018-12-23T02:02:53.060Z,19.00
2018-12-23T02:05:21.194Z,19.97
2018-12-23T02:07:49.462Z,22.27
2018-12-23T02:10:17.660Z,17.53
2018-12-23T02:12:45.684Z,19.27
2018-12-23T02:15:13.728Z,22.93
2018-12-23T02:17:42.050Z,25.73
2018-12-23T02:20:10.215Z,19.63
2018-12-23T02:22:38.316Z,16.57
2018-12-23T02:25:06.373Z,18.77
2018-12-23T02:27:34.428Z,21.03
2018-12-23T02:30:02.748Z,23.10
2018-12-23T02:32:30.712Z,20.27
2018-12-23T02:34:58.732Z,13.03
2018-12-23T02:37:26.805Z,17.73
2018-12-23T02:39:54.925Z,20.30
2018-12-23T02:42:23.047Z,14.00
2018-12-23T02:44:51.365Z,8.53
2018-12-23T02:47:19.627Z,7.97
2018-12-23T02:49:47.751Z,8.83
2018-12-23T02:52:15.981Z,8.73
2018-12-23T02:54:44.147Z,9.60
2018-12-23T02:57:12.109Z,10.27
2018-12-23T02:59:40.513Z,11.97
2018-12-23T03:02:08.611Z,11.77
2018-12-23T03:04:36.865Z,6.07
2018-12-23T03:07:04.984Z,10.70
2018-12-23T03:09:33.038Z,11.63
2018-12-23T03:12:01.082Z,12.57
2018-12-23T03:14:29.045Z,17.33
2018-12-23T03:16:57.221Z,15.70
2018-12-23T03:19:25.284Z,20.13
2018-12-23T03:21:53.320Z,14.67
2018-12-23T03:24:21.483Z,19.00
2018-12-23T03:26:49.613Z,11.97
2018-12-23T03:29:17.717Z,21.57
2018-12-23T03:31:45.986Z,11.77
2018-12-23T03:34:14.072Z,9.33
2018-12-23T03:36:42.100Z,30.17
2018-12-23T03:39:10.442Z,17.40
2018-12-23T03:41:38.564Z,12.30
2018-12-23T03:44:06.737Z,10.47
2018-12-23T03:46:35.058Z,14.87
2018-12-23T03:49:03.121Z,15.70
2018-12-23T03:51:31.242Z,14.13
2018-12-23T03:53:59.547Z,12.23
2018-12-23T03:56:27.881Z,15.87
2018-12-23T03:58:55.832Z,22.97
2018-12-23T04:01:24.077Z,8.63
2018-12-23T04:03:52.297Z,8.90
2018-12-23T04:06:24.405Z,10.30
2018-12-23T04:08:50.417Z,14.10
2018-12-23T04:11:18.584Z,10.20
2018-12-23T04:13:46.720Z,8.97
2018-12-23T04:16:14.846Z,9.40
2018-12-23T04:18:43.122Z,8.93
2018-12-23T04:21:11.240Z,10.17
2018-12-23T04:23:39.488Z,13.83
2018-12-23T04:26:07.552Z,9.73
2018-12-23T04:28:35.701Z,7.20
2018-12-23T04:31:03.617Z,6.73
2018-12-23T04:33:31.883Z,7.90
2018-12-23T04:36:00.048Z,7.47
2018-12-23T04:38:27.948Z,6.47
2018-12-23T04:40:55.862Z,9.07
2018-12-23T04:43:23.916Z,6.10
2018-12-23T04:45:52.179Z,7.03
2018-12-23T04:48:20.304Z,7.53
2018-12-23T04:50:48.493Z,8.43
2018-12-23T04:53:16.595Z,6.60
2018-12-23T04:55:44.717Z,6.90
2018-12-23T04:58:12.677Z,4.47
2018-12-23T05:00:40.871Z,5.57
2018-12-23T05:03:09.074Z,5.53
2018-12-23T05:05:37.140Z,7.20
2018-12-23T05:08:05.251Z,12.13
2018-12-23T05:10:33.279Z,6.10
2018-12-23T05:13:01.225Z,7.27
2018-12-23T05:15:29.294Z,5.10
2018-12-23T05:17:57.390Z,6.33
2018-12-23T05:20:25.609Z,4.90
2018-12-23T05:22:53.669Z,5.27
2018-12-23T05:25:21.692Z,6.27
2018-12-23T05:27:49.775Z,4.20
2018-12-23T05:30:17.787Z,4.20
2018-12-23T05:32:45.906Z,5.60
2018-12-23T05:35:14.026Z,4.93
2018-12-23T05:37:42.241Z,3.93
2018-12-23T05:40:10.235Z,3.80
2018-12-23T05:42:38.282Z,7.53
2018-12-23T05:45:06.268Z,6.93
2018-12-23T05:47:34.423Z,9.57
2018-12-23T05:50:02.683Z,10.50
2018-12-23T05:52:30.823Z,10.30
2018-12-23T05:54:58.831Z,9.47
2018-12-23T05:57:26.989Z,8.43
2018-12-23T05:59:55.222Z,7.10
2018-12-23T06:02:23.542Z,4.83
2018-12-23T06:04:51.761Z,7.83
2018-12-23T06:07:20.000Z,8.17
2018-12-23T06:09:48.102Z,5.97
2018-12-23T06:12:16.423Z,5.60
2018-12-23T06:14:44.443Z,6.73
2018-12-23T06:17:12.662Z,5.17
2018-12-23T06:19:40.619Z,6.53
2018-12-23T06:22:08.639Z,11.90
2018-12-23T06:24:36.748Z,5.10
2018-12-23T06:27:04.839Z,5.43
2018-12-23T06:29:32.862Z,4.47
2018-12-23T06:32:00.815Z,5.07
2018-12-23T06:34:29.035Z,4.90
2018-12-23T06:36:57.259Z,5.20
2018-12-23T06:39:25.191Z,6.40
2018-12-23T06:41:53.203Z,5.70
2018-12-23T06:44:21.230Z,4.93
2018-12-23T06:46:49.393Z,8.47
2018-12-23T06:49:17.613Z,6.37
2018-12-23T06:51:45.770Z,8.97
2018-12-23T06:54:13.971Z,9.07
2018-12-23T06:56:42.117Z,10.23
2018-12-23T06:59:10.231Z,6.53
2018-12-23T07:01:38.249Z,6.73
2018-12-23T07:04:06.533Z,7.03
2018-12-23T07:06:34.652Z,4.50
2018-12-23T07:09:03.018Z,6.23
2018-12-23T07:11:31.052Z,10.20
2018-12-23T07:13:58.964Z,8.03
2018-12-23T07:16:27.038Z,5.53
2018-12-23T07:18:55.148Z,5.27
2018-12-23T07:21:23.268Z,5.77
2018-12-23T07:23:51.327Z,8.93
2018-12-23T07:26:19.233Z,9.67
2018-12-23T07:28:47.226Z,21.87
2018-12-23T07:31:15.183Z,9.23
2018-12-23T07:33:43.303Z,7.27
2018-12-23T07:36:11.495Z,3.97
2018-12-23T07:38:39.503Z,3.13
2018-12-23T07:41:07.777Z,4.43
2018-12-23T07:43:37.684Z,4.03
